createdAt,value
2023-04-25T00:00:13.716Z,989.09
2023-04-25T00:01:13.707Z,989.07
2023-04-25T00:02:13.782Z,989.10
2023-04-25T00:03:13.858Z,989.10
2023-04-25T00:04:13.933Z,989.10
2023-04-25T00:05:13.852Z,989.10
2023-04-25T00:06:13.651Z,989.07
2023-04-25T00:07:13.637Z,989.09
2023-04-25T00:08:13.701Z,989.09
2023-04-25T00:09:13.703Z,989.13
2023-04-25T00:10:13.633Z,989.10
2023-04-25T00:11:13.595Z,989.12
2023-04-25T00:12:13.598Z,989.16
2023-04-25T00:13:13.675Z,989.11
2023-04-25T00:14:13.701Z,989.16
2023-04-25T00:15:13.555Z,989.13
2023-04-25T00:16:13.597Z,989.13
2023-04-25T00:17:13.543Z,989.14
2023-04-25T00:18:13.520Z,989.13
2023-04-25T00:19:13.514Z,989.11
2023-04-25T00:20:13.494Z,989.13
2023-04-25T00:21:13.481Z,989.12
2023-04-25T00:22:13.507Z,989.14
2023-04-25T00:23:13.461Z,989.16
2023-04-25T00:24:13.455Z,989.11
2023-04-25T00:25:13.438Z,989.12
2023-04-25T00:26:13.446Z,989.11
2023-04-25T00:27:13.430Z,989.06
2023-04-25T00:28:13.403Z,989.07
2023-04-25T00:29:13.413Z,988.99
2023-04-25T00:30:13.381Z,988.97
2023-04-25T00:31:13.394Z,988.99
2023-04-25T00:32:13.377Z,988.90
2023-04-25T00:33:13.365Z,988.92
2023-04-25T00:34:13.338Z,988.93
2023-04-25T00:35:13.352Z,988.88
2023-04-25T00:36:13.338Z,988.90
2023-04-25T00:37:13.316Z,988.86
2023-04-25T00:38:13.297Z,988.89
2023-04-25T00:39:13.292Z,988.91
2023-04-25T00:40:13.272Z,988.86
2023-04-25T00:41:13.258Z,988.89
2023-04-25T00:42:13.293Z,988.86
2023-04-25T00:43:13.232Z,988.88
2023-04-25T00:44:13.226Z,988.90
2023-04-25T00:45:13.218Z,988.86
2023-04-25T00:46:13.242Z,988.87
2023-04-25T00:47:13.208Z,988.88
2023-04-25T00:48:13.186Z,988.90
2023-04-25T00:49:13.174Z,988.89
2023-04-25T00:50:13.161Z,988.90
2023-04-25T00:51:13.148Z,988.89
2023-04-25T00:52:13.156Z,988.92
2023-04-25T00:53:13.125Z,988.91
2023-04-25T00:54:13.119Z,988.90
2023-04-25T00:55:13.103Z,988.88
2023-04-25T00:56:13.094Z,988.87
2023-04-25T00:57:13.109Z,988.87
2023-04-25T00:58:13.107Z,988.85
2023-04-25T00:59:13.056Z,988.83
2023-04-25T01:00:13.048Z,988.82
2023-04-25T01:01:13.039Z,988.80
2023-04-25T01:02:13.222Z,988.83
2023-04-25T01:03:13.106Z,988.83
2023-04-25T01:04:13.107Z,988.87
2023-04-25T01:05:13.022Z,988.84
2023-04-25T01:06:12.988Z,988.86
2023-04-25T01:07:12.985Z,988.78
2023-04-25T01:08:12.967Z,988.79
2023-04-25T01:09:12.945Z,988.81
2023-04-25T01:10:12.944Z,988.77
2023-04-25T01:11:12.922Z,988.75
2023-04-25T01:12:12.938Z,988.79
2023-04-25T01:13:12.902Z,988.80
2023-04-25T01:14:12.933Z,988.81
2023-04-25T01:15:12.887Z,988.84
2023-04-25T01:16:12.931Z,988.86
2023-04-25T01:17:14.366Z,988.87
2023-04-25T01:18:13.043Z,988.91
2023-04-25T01:19:12.836Z,988.86
2023-04-25T01:20:12.835Z,988.89
2023-04-25T01:21:12.813Z,988.90
2023-04-25T01:22:12.820Z,988.86
2023-04-25T01:23:12.794Z,988.91
2023-04-25T01:24:12.782Z,988.90
2023-04-25T01:25:12.772Z,988.87
2023-04-25T01:26:12.758Z,988.85
2023-04-25T01:27:12.767Z,988.87
2023-04-25T01:28:12.734Z,988.87
2023-04-25T01:29:12.729Z,988.87
2023-04-25T01:30:12.739Z,988.88
2023-04-25T01:31:12.718Z,988.91
2023-04-25T01:32:12.762Z,988.93
2023-04-25T01:33:12.681Z,988.91
2023-04-25T01:34:12.668Z,988.91
2023-04-25T01:35:12.668Z,988.87
2023-04-25T01:36:12.648Z,988.89
2023-04-25T01:37:12.652Z,988.89
2023-04-25T01:38:12.627Z,988.91
2023-04-25T01:39:12.622Z,988.90
2023-04-25T01:40:12.606Z,988.87
2023-04-25T01:41:12.594Z,988.93
2023-04-25T01:42:12.607Z,988.91
2023-04-25T01:43:12.570Z,988.90
2023-04-25T01:44:12.563Z,988.89
2023-04-25T01:45:12.561Z,988.91
2023-04-25T01:46:12.633Z,988.88
2023-04-25T01:47:12.565Z,988.88
2023-04-25T01:48:12.547Z,988.92
2023-04-25T01:49:12.506Z,988.93
2023-04-25T01:50:12.490Z,988.88
2023-04-25T01:51:12.522Z,988.90
2023-04-25T01:52:12.489Z,988.86
2023-04-25T01:53:12.465Z,988.85
2023-04-25T01:54:12.453Z,988.83
2023-04-25T01:55:12.455Z,988.85
2023-04-25T01:56:12.449Z,988.83
2023-04-25T01:57:12.416Z,988.85
2023-04-25T01:58:12.404Z,988.88
2023-04-25T01:59:12.402Z,988.81
2023-04-25T02:00:12.396Z,988.76
2023-04-25T02:01:12.433Z,988.76
2023-04-25T02:02:12.398Z,988.75
2023-04-25T02:03:12.556Z,988.76
2023-04-25T02:04:12.655Z,988.78
2023-04-25T02:05:12.334Z,988.73
2023-04-25T02:06:12.334Z,988.72
2023-04-25T02:07:12.302Z,988.74
2023-04-25T02:08:12.297Z,988.75
2023-04-25T02:09:12.283Z,988.71
2023-04-25T02:10:12.279Z,988.75
2023-04-25T02:11:12.283Z,988.74
2023-04-25T02:12:12.254Z,988.73
2023-04-25T02:13:12.237Z,988.74
2023-04-25T02:14:12.244Z,988.72
2023-04-25T02:15:12.218Z,988.77
2023-04-25T02:16:12.255Z,988.81
2023-04-25T02:17:12.351Z,988.78
2023-04-25T02:18:12.229Z,988.81
2023-04-25T02:19:12.172Z,988.75
2023-04-25T02:20:12.166Z,988.72
2023-04-25T02:21:12.166Z,988.76
2023-04-25T02:22:12.150Z,988.72
2023-04-25T02:23:12.137Z,988.72
2023-04-25T02:24:12.123Z,988.81
2023-04-25T02:25:12.106Z,988.80
2023-04-25T02:26:12.101Z,988.76
2023-04-25T02:27:12.095Z,988.73
2023-04-25T02:28:12.080Z,988.73
2023-04-25T02:29:12.066Z,988.75
2023-04-25T02:30:12.056Z,988.77
2023-04-25T02:31:12.057Z,988.74
2023-04-25T02:32:12.049Z,988.74
2023-04-25T02:33:12.051Z,988.69
2023-04-25T02:34:12.024Z,988.74
2023-04-25T02:35:11.994Z,988.76
2023-04-25T02:36:11.982Z,988.67
2023-04-25T02:37:11.995Z,988.69
2023-04-25T02:38:11.971Z,988.68
2023-04-25T02:39:11.953Z,988.66
2023-04-25T02:40:11.946Z,988.68
2023-04-25T02:41:11.929Z,988.68
2023-04-25T02:42:11.938Z,988.64
2023-04-25T02:43:11.906Z,988.65
2023-04-25T02:44:11.899Z,988.67
2023-04-25T02:45:11.890Z,988.73
2023-04-25T02:46:11.888Z,988.66
2023-04-25T02:47:11.880Z,988.63
2023-04-25T02:48:11.932Z,988.60
2023-04-25T02:49:11.842Z,988.66
2023-04-25T02:50:11.844Z,988.65
2023-04-25T02:51:11.844Z,988.61
2023-04-25T02:52:11.801Z,988.64
2023-04-25T02:53:11.807Z,988.66
2023-04-25T02:54:11.780Z,988.60
2023-04-25T02:55:11.770Z,988.66
2023-04-25T02:56:11.760Z,988.67
2023-04-25T02:57:11.781Z,988.68
2023-04-25T02:58:11.735Z,988.68
2023-04-25T02:59:11.730Z,988.66
2023-04-25T03:00:11.717Z,988.69
2023-04-25T03:01:11.741Z,988.68
2023-04-25T03:02:11.755Z,988.73
2023-04-25T03:03:11.796Z,988.78
2023-04-25T03:04:11.679Z,988.73
2023-04-25T03:05:11.671Z,988.74
2023-04-25T03:06:11.670Z,988.82
2023-04-25T03:07:11.670Z,988.76
2023-04-25T03:08:11.628Z,988.73
2023-04-25T03:09:11.627Z,988.82
2023-04-25T03:10:11.601Z,988.84
2023-04-25T03:11:11.618Z,988.81
2023-04-25T03:12:11.595Z,988.75
2023-04-25T03:13:11.585Z,988.78
2023-04-25T03:14:11.560Z,988.76
2023-04-25T03:15:11.549Z,988.78
2023-04-25T03:16:11.575Z,988.82
2023-04-25T03:17:11.540Z,988.82
2023-04-25T03:18:11.514Z,988.85
2023-04-25T03:19:11.505Z,988.80
2023-04-25T03:20:11.507Z,988.81
2023-04-25T03:21:11.491Z,988.78
2023-04-25T03:22:11.500Z,988.83
2023-04-25T03:23:11.476Z,988.83
2023-04-25T03:24:11.447Z,988.80
2023-04-25T03:25:11.433Z,988.82
2023-04-25T03:26:11.426Z,988.83
2023-04-25T03:27:11.453Z,988.88
2023-04-25T03:28:11.417Z,988.84
2023-04-25T03:29:11.391Z,988.86
2023-04-25T03:30:11.404Z,988.87
2023-04-25T03:31:11.369Z,988.86
2023-04-25T03:32:11.446Z,988.85
2023-04-25T03:33:11.651Z,988.88
2023-04-25T03:34:11.333Z,988.88
2023-04-25T03:35:11.335Z,988.85
2023-04-25T03:36:11.326Z,988.87
2023-04-25T03:37:11.320Z,988.86
2023-04-25T03:38:11.312Z,988.88
2023-04-25T03:39:11.282Z,988.91
2023-04-25T03:40:11.273Z,988.91
2023-04-25T03:41:11.268Z,988.93
2023-04-25T03:42:11.267Z,988.89
2023-04-25T03:43:11.237Z,988.97
2023-04-25T03:44:11.227Z,988.94
2023-04-25T03:45:11.213Z,988.96
2023-04-25T03:46:11.224Z,988.99
2023-04-25T03:47:11.211Z,988.98
2023-04-25T03:48:11.183Z,988.97
2023-04-25T03:49:11.181Z,988.98
2023-04-25T03:50:11.157Z,988.96
2023-04-25T03:51:11.161Z,988.98
2023-04-25T03:52:11.152Z,988.95
2023-04-25T03:53:11.137Z,988.97
2023-04-25T03:54:11.134Z,989.02
2023-04-25T03:55:11.114Z,989.03
2023-04-25T03:56:11.104Z,988.99
2023-04-25T03:57:11.096Z,989.00
2023-04-25T03:58:11.071Z,989.00
2023-04-25T03:59:11.066Z,989.05
2023-04-25T04:00:11.055Z,989.03
2023-04-25T04:01:11.033Z,989.02
2023-04-25T04:02:11.086Z,989.07
2023-04-25T04:03:11.181Z,989.02
2023-04-25T04:04:11.136Z,989.01
2023-04-25T04:05:11.085Z,989.04
2023-04-25T04:06:10.983Z,989.02
2023-04-25T04:07:11.243Z,989.02
2023-04-25T04:08:10.957Z,989.03
2023-04-25T04:09:10.950Z,989.03
2023-04-25T04:10:10.956Z,989.08
2023-04-25T04:11:10.934Z,989.05
2023-04-25T04:12:10.932Z,989.03
2023-04-25T04:13:10.907Z,989.05
2023-04-25T04:14:10.915Z,989.09
2023-04-25T04:15:10.878Z,989.06
2023-04-25T04:16:10.982Z,989.06
2023-04-25T04:17:10.881Z,989.11
2023-04-25T04:18:10.930Z,989.12
2023-04-25T04:19:10.836Z,989.11
2023-04-25T04:20:10.841Z,989.11
2023-04-25T04:21:10.814Z,989.13
2023-04-25T04:22:10.821Z,989.16
2023-04-25T04:23:10.802Z,989.17
2023-04-25T04:24:10.782Z,989.17
2023-04-25T04:25:10.778Z,989.17
2023-04-25T04:26:10.782Z,989.19
2023-04-25T04:27:10.773Z,989.19
2023-04-25T04:28:10.736Z,989.14
2023-04-25T04:29:10.750Z,989.19
2023-04-25T04:30:10.718Z,989.16
2023-04-25T04:31:10.743Z,989.19
2023-04-25T04:32:10.708Z,989.17
2023-04-25T04:33:10.692Z,989.23
2023-04-25T04:34:10.688Z,989.22
2023-04-25T04:35:10.660Z,989.24
2023-04-25T04:36:10.652Z,989.26
2023-04-25T04:37:10.658Z,989.25
2023-04-25T04:38:10.624Z,989.28
2023-04-25T04:39:10.647Z,989.23
2023-04-25T04:40:10.606Z,989.24
2023-04-25T04:41:10.593Z,989.27
2023-04-25T04:42:10.637Z,989.32
2023-04-25T04:43:10.572Z,989.33
2023-04-25T04:44:10.559Z,989.34
2023-04-25T04:45:10.557Z,989.35
2023-04-25T04:46:10.548Z,989.34
2023-04-25T04:47:10.533Z,989.33
2023-04-25T04:48:10.554Z,989.32
2023-04-25T04:49:10.502Z,989.36
2023-04-25T04:50:10.507Z,989.36
2023-04-25T04:51:10.486Z,989.36
2023-04-25T04:52:10.480Z,989.32
2023-04-25T04:53:10.462Z,989.39
2023-04-25T04:54:10.452Z,989.35
2023-04-25T04:55:10.444Z,989.39
2023-04-25T04:56:10.447Z,989.41
2023-04-25T04:57:10.449Z,989.42
2023-04-25T04:58:10.421Z,989.42
2023-04-25T04:59:10.394Z,989.46
2023-04-25T05:00:10.375Z,989.44
2023-04-25T05:01:10.432Z,989.47
2023-04-25T05:02:10.417Z,989.46
2023-04-25T05:03:10.498Z,989.43
2023-04-25T05:04:10.577Z,989.49
2023-04-25T05:05:10.335Z,989.45
2023-04-25T05:06:10.313Z,989.49
2023-04-25T05:07:10.369Z,989.48
2023-04-25T05:08:10.293Z,989.52
2023-04-25T05:09:10.302Z,989.50
2023-04-25T05:10:10.267Z,989.50
2023-04-25T05:11:10.257Z,989.55
2023-04-25T05:12:10.262Z,989.53
2023-04-25T05:13:10.233Z,989.54
2023-04-25T05:14:10.244Z,989.60
2023-04-25T05:15:10.250Z,989.63
2023-04-25T05:16:10.253Z,989.62
2023-04-25T05:17:10.210Z,989.64
2023-04-25T05:18:10.223Z,989.64
2023-04-25T05:19:10.189Z,989.67
2023-04-25T05:20:10.171Z,989.69
2023-04-25T05:21:10.153Z,989.69
2023-04-25T05:22:10.165Z,989.69
2023-04-25T05:23:10.130Z,989.64
2023-04-25T05:24:10.114Z,989.73
2023-04-25T05:25:10.115Z,989.73
2023-04-25T05:26:10.090Z,989.75
2023-04-25T05:27:10.099Z,989.78
2023-04-25T05:28:10.070Z,989.77
2023-04-25T05:29:10.067Z,989.76
2023-04-25T05:30:10.089Z,989.77
2023-04-25T05:31:10.038Z,989.78
2023-04-25T05:32:10.119Z,989.77
2023-04-25T05:33:10.043Z,989.80
2023-04-25T05:34:10.011Z,989.85
2023-04-25T05:35:10.033Z,989.87
2023-04-25T05:36:09.987Z,989.92
2023-04-25T05:37:09.988Z,989.96
2023-04-25T05:38:09.957Z,989.95
2023-04-25T05:39:09.950Z,989.95
2023-04-25T05:40:09.961Z,989.98
2023-04-25T05:41:09.922Z,990.00
2023-04-25T05:42:09.924Z,989.97
2023-04-25T05:43:09.902Z,990.02
2023-04-25T05:44:09.891Z,989.98
2023-04-25T05:45:09.885Z,989.99
2023-04-25T05:46:09.926Z,990.01
2023-04-25T05:47:09.868Z,990.03
2023-04-25T05:48:09.898Z,990.08
2023-04-25T05:49:09.835Z,990.06
2023-04-25T05:50:09.839Z,990.11
2023-04-25T05:51:09.810Z,990.16
2023-04-25T05:52:09.823Z,990.16
2023-04-25T05:53:09.788Z,990.17
2023-04-25T05:54:09.773Z,990.16
2023-04-25T05:55:09.781Z,990.16
2023-04-25T05:56:09.762Z,990.22
2023-04-25T05:57:09.762Z,990.21
2023-04-25T05:58:09.733Z,990.21
2023-04-25T05:59:09.726Z,990.24
2023-04-25T06:00:09.710Z,990.26
2023-04-25T06:01:09.699Z,990.25
2023-04-25T06:02:09.765Z,990.30
2023-04-25T06:03:09.820Z,990.27
2023-04-25T06:04:09.981Z,990.30
2023-04-25T06:05:09.790Z,990.31
2023-04-25T06:06:09.645Z,990.35
2023-04-25T06:07:09.649Z,990.34
2023-04-25T06:08:09.619Z,990.33
2023-04-25T06:09:09.613Z,990.39
2023-04-25T06:10:09.607Z,990.38
2023-04-25T06:11:09.587Z,990.34
2023-04-25T06:12:09.592Z,990.39
2023-04-25T06:13:09.595Z,990.34
2023-04-25T06:14:09.554Z,990.36
2023-04-25T06:15:20.186Z,990.35
2023-04-25T06:16:09.559Z,990.38
2023-04-25T06:17:09.583Z,990.35
2023-04-25T06:18:09.570Z,990.35
2023-04-25T06:19:09.508Z,990.39
2023-04-25T06:20:09.490Z,990.41
2023-04-25T06:21:09.477Z,990.42
2023-04-25T06:22:09.488Z,990.40
2023-04-25T06:23:09.449Z,990.44
2023-04-25T06:24:09.453Z,990.46
2023-04-25T06:25:09.433Z,990.47
2023-04-25T06:26:09.425Z,990.48
2023-04-25T06:27:09.427Z,990.50
2023-04-25T06:28:09.396Z,990.48
2023-04-25T06:29:09.385Z,990.49
2023-04-25T06:30:09.376Z,990.47
2023-04-25T06:31:09.420Z,990.46
2023-04-25T06:32:09.371Z,990.49
2023-04-25T06:33:09.377Z,990.53
2023-04-25T06:34:09.346Z,990.49
2023-04-25T06:35:09.356Z,990.55
2023-04-25T06:36:09.326Z,990.53
2023-04-25T06:37:09.300Z,990.51
2023-04-25T06:38:09.300Z,990.50
2023-04-25T06:39:09.276Z,990.53
2023-04-25T06:40:09.259Z,990.53
2023-04-25T06:41:09.271Z,990.56
2023-04-25T06:42:09.239Z,990.56
2023-04-25T06:43:09.362Z,990.56
2023-04-25T06:44:09.223Z,990.60
2023-04-25T06:45:09.214Z,990.62
2023-04-25T06:46:09.199Z,990.59
2023-04-25T06:47:09.223Z,990.63
2023-04-25T06:48:09.353Z,990.60
2023-04-25T06:49:09.163Z,990.62
2023-04-25T06:50:09.171Z,990.64
2023-04-25T06:51:09.140Z,990.62
2023-04-25T06:52:09.140Z,990.65
2023-04-25T06:53:09.617Z,990.68
2023-04-25T06:54:09.114Z,990.65
2023-04-25T06:55:09.098Z,990.68
2023-04-25T06:56:09.098Z,990.69
2023-04-25T06:57:09.097Z,990.74
2023-04-25T06:58:09.085Z,990.78
2023-04-25T06:59:09.061Z,990.84
2023-04-25T07:00:09.055Z,990.88
2023-04-25T07:01:09.058Z,990.88
2023-04-25T07:02:09.086Z,990.85
2023-04-25T07:03:09.184Z,990.90
2023-04-25T07:04:09.207Z,990.88
2023-04-25T07:05:08.993Z,990.88
2023-04-25T07:06:09.047Z,990.92
2023-04-25T07:07:08.975Z,990.87
2023-04-25T07:08:08.979Z,990.92
2023-04-25T07:09:08.947Z,990.92
2023-04-25T07:10:08.935Z,990.93
2023-04-25T07:11:08.919Z,990.94
2023-04-25T07:12:08.926Z,990.94
2023-04-25T07:13:08.920Z,990.98
2023-04-25T07:14:08.894Z,991.02
2023-04-25T07:15:08.876Z,990.98
2023-04-25T07:16:08.895Z,990.98
2023-04-25T07:17:08.856Z,991.00
2023-04-25T07:18:08.935Z,990.99
2023-04-25T07:19:08.860Z,990.99
2023-04-25T07:20:08.820Z,991.00
2023-04-25T07:21:08.839Z,991.00
2023-04-25T07:22:08.824Z,991.03
2023-04-25T07:23:08.808Z,990.99
2023-04-25T07:24:08.803Z,990.99
2023-04-25T07:25:08.771Z,991.04
2023-04-25T07:26:08.771Z,991.00
2023-04-25T07:27:08.752Z,990.99
2023-04-25T07:28:08.770Z,991.01
2023-04-25T07:29:08.722Z,991.04
2023-04-25T07:30:08.719Z,991.06
2023-04-25T07:31:08.703Z,991.07
2023-04-25T07:32:08.785Z,991.12
2023-04-25T07:33:08.703Z,991.11
2023-04-25T07:34:08.673Z,991.10
2023-04-25T07:35:08.666Z,991.12
2023-04-25T07:36:08.659Z,991.15
2023-04-25T07:37:08.633Z,991.09
2023-04-25T07:38:08.657Z,991.12
2023-04-25T07:39:08.613Z,991.05
2023-04-25T07:40:08.609Z,991.04
2023-04-25T07:41:08.596Z,991.01
2023-04-25T07:42:08.582Z,991.01
2023-04-25T07:43:08.581Z,991.05
2023-04-25T07:44:08.557Z,991.05
2023-04-25T07:45:08.544Z,991.03
2023-04-25T07:46:08.561Z,991.06
2023-04-25T07:47:08.533Z,991.08
2023-04-25T07:48:08.539Z,991.09
2023-04-25T07:49:08.503Z,991.11
2023-04-25T07:50:08.507Z,991.13
2023-04-25T07:51:08.478Z,991.13
2023-04-25T07:52:08.473Z,991.16
2023-04-25T07:53:08.478Z,991.13
2023-04-25T07:54:08.507Z,991.17
2023-04-25T07:55:08.436Z,991.15
2023-04-25T07:56:08.445Z,991.15
2023-04-25T07:57:08.414Z,991.17
2023-04-25T07:58:08.423Z,991.16
2023-04-25T07:59:08.388Z,991.17
2023-04-25T08:00:08.376Z,991.18
2023-04-25T08:01:08.366Z,991.25
2023-04-25T08:02:08.358Z,991.22
2023-04-25T08:03:08.516Z,991.25
2023-04-25T08:04:08.533Z,991.29
2023-04-25T08:05:08.654Z,991.23
2023-04-25T08:06:08.863Z,991.25
2023-04-25T08:07:08.311Z,991.28
2023-04-25T08:08:08.312Z,991.23
2023-04-25T08:09:08.274Z,991.22
2023-04-25T08:10:08.289Z,991.23
2023-04-25T08:11:08.256Z,991.18
2023-04-25T08:12:08.248Z,991.17
2023-04-25T08:13:08.257Z,991.18
2023-04-25T08:14:08.222Z,991.20
2023-04-25T08:15:08.237Z,991.24
2023-04-25T08:16:08.228Z,991.21
2023-04-25T08:17:08.194Z,991.19
2023-04-25T08:18:08.230Z,991.18
2023-04-25T08:19:08.166Z,991.24
2023-04-25T08:20:08.166Z,991.24
2023-04-25T08:21:08.140Z,991.28
2023-04-25T08:22:08.135Z,991.31
2023-04-25T08:23:08.140Z,991.31
2023-04-25T08:24:08.104Z,991.28
2023-04-25T08:25:08.109Z,991.31
2023-04-25T08:26:08.134Z,991.30
2023-04-25T08:27:08.076Z,991.36
2023-04-25T08:28:08.090Z,991.38
2023-04-25T08:29:08.056Z,991.34
2023-04-25T08:30:08.054Z,991.46
2023-04-25T08:31:08.092Z,991.38
2023-04-25T08:32:08.021Z,991.44
2023-04-25T08:33:08.041Z,991.43
2023-04-25T08:34:08.011Z,991.43
2023-04-25T08:35:08.020Z,991.40
2023-04-25T08:36:07.982Z,991.46
2023-04-25T08:37:07.972Z,991.43
2023-04-25T08:38:08.096Z,991.48
2023-04-25T08:39:07.951Z,991.51
2023-04-25T08:40:07.957Z,991.41
2023-04-25T08:41:07.933Z,991.45
2023-04-25T08:42:07.943Z,991.43
2023-04-25T08:43:07.922Z,991.50
2023-04-25T08:44:07.905Z,991.49
2023-04-25T08:45:07.874Z,991.59
2023-04-25T08:46:07.921Z,991.54
2023-04-25T08:47:07.903Z,991.55
2023-04-25T08:48:07.901Z,991.54
2023-04-25T08:49:07.830Z,991.57
2023-04-25T08:50:08.193Z,991.61
2023-04-25T08:52:07.793Z,991.64
2023-04-25T08:53:07.822Z,991.57
2023-04-25T08:54:34.442Z,991.52
2023-04-25T08:55:08.768Z,991.48
2023-04-25T08:56:07.773Z,991.58
2023-04-25T08:57:07.734Z,991.54
2023-04-25T08:58:07.749Z,991.50
2023-04-25T08:59:07.734Z,991.55
2023-04-25T09:00:07.706Z,991.56
2023-04-25T09:01:07.777Z,991.55
2023-04-25T09:02:07.730Z,991.56
2023-04-25T09:03:07.824Z,991.55
2023-04-25T09:04:07.819Z,991.61
2023-04-25T09:05:07.677Z,991.64
2023-04-25T09:06:07.649Z,991.63
2023-04-25T09:07:07.628Z,991.63
2023-04-25T09:08:07.625Z,991.62
2023-04-25T09:09:07.950Z,991.74
2023-04-25T09:10:07.611Z,991.69
2023-04-25T09:11:07.578Z,991.69
2023-04-25T09:12:07.583Z,991.67
2023-04-25T09:13:07.549Z,991.76
2023-04-25T09:14:07.586Z,991.81
2023-04-25T09:15:07.559Z,991.83
2023-04-25T09:16:07.586Z,991.88
2023-04-25T09:17:07.531Z,991.90
2023-04-25T09:18:07.533Z,991.88
2023-04-25T09:19:07.532Z,991.96
2023-04-25T09:20:07.476Z,991.94
2023-04-25T09:21:12.957Z,991.94
2023-04-25T09:22:08.506Z,991.96
2023-04-25T09:23:07.443Z,991.95
2023-04-25T09:24:07.454Z,991.98
2023-04-25T09:25:07.421Z,991.96
2023-04-25T09:26:07.436Z,992.06
2023-04-25T09:27:07.416Z,992.02
2023-04-25T09:28:07.396Z,992.09
2023-04-25T09:29:07.407Z,992.13
2023-04-25T09:30:07.403Z,992.11
2023-04-25T09:31:07.355Z,992.12
2023-04-25T09:32:07.375Z,992.17
2023-04-25T09:33:07.350Z,992.20
2023-04-25T09:34:07.343Z,992.12
2023-04-25T09:35:07.308Z,992.17
2023-04-25T09:36:07.320Z,992.21
2023-04-25T09:37:07.285Z,992.17
2023-04-25T09:38:07.294Z,992.16
2023-04-25T09:39:07.281Z,992.17
2023-04-25T09:40:07.274Z,992.23
2023-04-25T09:41:07.254Z,992.20
2023-04-25T09:42:07.247Z,992.15
2023-04-25T09:43:07.232Z,992.16
2023-04-25T09:44:07.235Z,992.19
2023-04-25T09:45:07.211Z,992.21
2023-04-25T09:46:07.220Z,992.23
2023-04-25T09:47:07.177Z,992.26
2023-04-25T09:48:07.280Z,992.30
2023-04-25T09:49:07.175Z,992.36
2023-04-25T09:50:07.145Z,992.26
2023-04-25T09:51:07.138Z,992.27
2023-04-25T09:52:07.172Z,992.27
2023-04-25T09:53:07.126Z,992.28
2023-04-25T09:54:07.114Z,992.29
2023-04-25T09:55:07.093Z,992.27
2023-04-25T09:56:07.087Z,992.32
2023-04-25T09:57:07.068Z,992.39
2023-04-25T09:58:07.077Z,992.36
2023-04-25T09:59:07.071Z,992.39
2023-04-25T10:00:07.047Z,992.44
2023-04-25T10:01:07.109Z,992.41
2023-04-25T10:02:07.032Z,992.46
2023-04-25T10:03:07.084Z,992.45
2023-04-25T10:04:07.165Z,992.47
2023-04-25T10:05:07.101Z,992.51
2023-04-25T10:06:06.973Z,992.46
2023-04-25T10:07:06.954Z,992.49
2023-04-25T10:08:06.948Z,992.50
2023-04-25T10:09:06.943Z,992.47
2023-04-25T10:10:07.015Z,992.55
2023-04-25T10:11:06.915Z,992.55
2023-04-25T10:12:06.906Z,992.54
2023-04-25T10:13:06.893Z,992.56
2023-04-25T10:14:06.901Z,992.55
2023-04-25T10:15:06.885Z,992.55
2023-04-25T10:16:06.889Z,992.56
2023-04-25T10:17:06.843Z,992.61
2023-04-25T10:18:06.929Z,992.61
2023-04-25T10:19:06.855Z,992.63
2023-04-25T10:20:06.819Z,992.62
2023-04-25T10:21:06.807Z,992.61
2023-04-25T10:22:06.801Z,992.62
2023-04-25T10:23:06.790Z,992.62
2023-04-25T10:24:06.780Z,992.61
2023-04-25T10:25:06.765Z,992.62
2023-04-25T10:26:06.747Z,992.64
2023-04-25T10:27:06.746Z,992.63
2023-04-25T10:28:06.727Z,992.62
2023-04-25T10:29:06.718Z,992.60
2023-04-25T10:30:06.703Z,992.69
2023-04-25T10:31:06.814Z,992.61
2023-04-25T10:32:06.722Z,992.62
2023-04-25T10:33:06.664Z,992.66
2023-04-25T10:34:06.694Z,992.61
2023-04-25T10:35:06.650Z,992.56
2023-04-25T10:36:06.634Z,992.56
2023-04-25T10:37:06.624Z,992.61
2023-04-25T10:38:06.706Z,992.59
2023-04-25T10:39:06.618Z,992.61
2023-04-25T10:40:06.597Z,992.61
2023-04-25T10:41:06.589Z,992.60
2023-04-25T10:42:06.569Z,992.56
2023-04-25T10:43:06.595Z,992.65
2023-04-25T10:44:06.547Z,992.70
2023-04-25T10:45:06.563Z,992.67
2023-04-25T10:46:06.539Z,992.67
2023-04-25T10:47:06.615Z,992.72
2023-04-25T10:48:06.555Z,992.70
2023-04-25T10:49:06.484Z,992.70
2023-04-25T10:50:06.518Z,992.72
2023-04-25T10:51:06.466Z,992.72
2023-04-25T10:52:06.465Z,992.66
2023-04-25T10:53:06.445Z,992.78
2023-04-25T10:54:06.449Z,992.74
2023-04-25T10:55:06.464Z,992.74
2023-04-25T10:56:08.150Z,992.74
2023-04-25T10:57:06.389Z,992.76
2023-04-25T10:58:06.382Z,992.76
2023-04-25T10:59:06.384Z,992.78
2023-04-25T11:00:06.374Z,992.76
2023-04-25T11:01:06.379Z,992.84
2023-04-25T11:02:06.448Z,992.80
2023-04-25T11:03:06.450Z,992.82
2023-04-25T11:04:06.584Z,992.84
2023-04-25T11:05:06.316Z,992.82
2023-04-25T11:06:06.314Z,992.87
2023-04-25T11:07:07.517Z,992.87
2023-04-25T11:08:08.186Z,992.84
2023-04-25T11:09:06.265Z,992.92
2023-04-25T11:10:06.264Z,992.95
2023-04-25T11:11:06.240Z,992.94
2023-04-25T11:12:06.242Z,992.94
2023-04-25T11:13:06.293Z,992.93
2023-04-25T11:14:06.223Z,992.89
2023-04-25T11:15:06.205Z,992.87
2023-04-25T11:16:12.635Z,992.90
2023-04-25T11:17:07.233Z,992.93
2023-04-25T11:18:06.197Z,992.93
2023-04-25T11:19:06.169Z,992.92
2023-04-25T11:20:06.140Z,992.99
2023-04-25T11:21:06.160Z,992.91
2023-04-25T11:22:06.159Z,992.89
2023-04-25T11:23:06.120Z,992.87
2023-04-25T11:24:06.109Z,992.88
2023-04-25T11:25:06.089Z,992.89
2023-04-25T11:26:06.092Z,992.89
2023-04-25T11:27:06.077Z,992.88
2023-04-25T11:28:06.059Z,992.81
2023-04-25T11:29:06.059Z,992.83
2023-04-25T11:30:06.027Z,992.81
2023-04-25T11:31:06.019Z,992.82
2023-04-25T11:32:06.046Z,992.81
2023-04-25T11:33:06.076Z,992.92
2023-04-25T11:34:05.994Z,992.80
2023-04-25T11:35:05.978Z,992.76
2023-04-25T11:36:05.992Z,992.80
2023-04-25T11:37:05.952Z,992.79
2023-04-25T11:38:06.074Z,992.79
2023-04-25T11:39:06.213Z,992.75
2023-04-25T11:40:05.918Z,992.74
2023-04-25T11:41:05.910Z,992.70
2023-04-25T11:42:07.935Z,992.74
2023-04-25T11:43:06.890Z,992.83
2023-04-25T11:44:05.873Z,992.77
2023-04-25T11:45:05.902Z,992.83
2023-04-25T11:46:05.874Z,992.79
2023-04-25T11:47:05.835Z,992.82
2023-04-25T11:48:05.875Z,992.88
2023-04-25T11:49:05.830Z,992.89
2023-04-25T11:50:05.825Z,992.85
2023-04-25T11:51:05.847Z,992.85
2023-04-25T11:52:05.806Z,992.91
2023-04-25T11:53:05.813Z,992.92
2023-04-25T11:54:05.805Z,992.96
2023-04-25T11:55:05.803Z,992.91
2023-04-25T11:56:05.740Z,992.93
2023-04-25T11:57:05.739Z,992.93
2023-04-25T11:58:05.722Z,992.95
2023-04-25T11:59:05.776Z,992.97
2023-04-25T12:00:05.731Z,992.96
2023-04-25T12:01:05.685Z,992.98
2023-04-25T12:02:05.702Z,992.97
2023-04-25T12:03:05.728Z,992.96
2023-04-25T12:04:05.899Z,992.98
2023-04-25T12:05:21.683Z,992.98
2023-04-25T12:06:06.885Z,993.02
2023-04-25T12:07:05.623Z,992.95
2023-04-25T12:08:05.605Z,992.98
2023-04-25T12:09:05.619Z,993.02
2023-04-25T12:10:05.624Z,993.01
2023-04-25T12:11:05.578Z,992.95
2023-04-25T12:12:05.585Z,993.02
2023-04-25T12:13:05.550Z,992.97
2023-04-25T12:14:05.538Z,993.02
2023-04-25T12:15:05.549Z,993.01
2023-04-25T12:16:05.590Z,993.01
2023-04-25T12:17:05.506Z,993.08
2023-04-25T12:18:05.513Z,993.07
2023-04-25T12:19:05.486Z,993.08
2023-04-25T12:20:05.563Z,993.04
2023-04-25T12:21:05.475Z,993.09
2023-04-25T12:22:05.452Z,993.07
2023-04-25T12:23:05.447Z,993.05
2023-04-25T12:24:05.435Z,993.14
2023-04-25T12:25:05.447Z,993.21
2023-04-25T12:26:05.425Z,993.14
2023-04-25T12:27:05.393Z,993.14
2023-04-25T12:28:05.383Z,993.20
2023-04-25T12:29:05.372Z,993.21